createdAt,value
2017-05-29T06:53:23.603Z,1015.47
2017-05-29T06:54:24.260Z,1015.69
2017-05-29T06:55:24.924Z,1015.51
2017-05-29T06:56:25.578Z,1015.43
2017-05-29T06:57:26.245Z,1015.39
2017-05-29T06:58:26.926Z,1015.62
2017-05-29T06:59:27.585Z,1015.63
2017-05-29T07:00:28.255Z,1015.39
2017-05-29T07:01:28.922Z,1015.36
2017-05-29T07:02:29.599Z,1015.32
2017-05-29T07:03:30.266Z,1015.45
2017-05-29T07:04:30.949Z,1015.26
2017-05-29T07:05:31.702Z,1015.32
2017-05-29T07:06:32.495Z,1015.42
2017-05-29T07:07:33.113Z,1015.37
2017-05-29T07:08:33.796Z,1015.45
2017-05-29T07:09:34.464Z,1015.72
2017-05-29T07:10:35.132Z,1015.54
2017-05-29T07:11:38.743Z,1015.73
2017-05-29T07:12:41.069Z,1015.5
2017-05-29T07:13:42.938Z,1015.5
2017-05-29T07:14:45.446Z,1015.53
2017-05-29T07:15:48.067Z,1015.53
2017-05-29T07:16:50.740Z,1015.54
2017-05-29T07:17:53.108Z,1015.5
2017-05-29T07:18:55.629Z,1015.45
2017-05-29T07:19:57.260Z,1015.41
2017-05-29T07:20:57.952Z,1015.37
2017-05-29T07:21:58.658Z,1015.33
2017-05-29T07:22:59.812Z,1015.41
2017-05-29T07:24:00.942Z,1015.41
2017-05-29T07:25:01.890Z,1015.39
2017-05-29T07:26:02.600Z,1015.35
2017-05-29T07:27:03.283Z,1015.31
2017-05-29T07:28:03.965Z,1015.29
2017-05-29T07:29:04.648Z,1015.34
2017-05-29T07:30:05.315Z,1015.46
2017-05-29T07:31:05.989Z,1015.38
2017-05-29T07:32:06.667Z,1015.36
2017-05-29T07:33:07.313Z,1015.41
2017-05-29T07:34:08.008Z,1015.5
2017-05-29T07:35:08.725Z,1015.43
2017-05-29T07:36:09.401Z,1015.47
2017-05-29T07:37:10.098Z,1015.66
2017-05-29T07:38:10.783Z,1015.67
2017-05-29T07:39:11.457Z,1015.65
2017-05-29T07:40:12.145Z,1015.68
2017-05-29T07:41:12.823Z,1015.71
2017-05-29T07:42:13.502Z,1015.75
2017-05-29T07:43:14.175Z,1015.76
2017-05-29T07:44:14.844Z,1015.55
2017-05-29T07:45:15.558Z,1015.67
2017-05-29T07:46:16.244Z,1015.58
2017-05-29T07:47:16.919Z,1015.7
2017-05-29T07:48:17.601Z,1015.62
2017-05-29T07:49:18.286Z,1015.8
2017-05-29T07:50:18.978Z,1015.47
2017-05-29T07:51:19.653Z,1015.53
2017-05-29T07:52:20.328Z,1015.52
2017-05-29T07:53:20.995Z,1015.56
2017-05-29T07:54:21.673Z,1015.54
2017-05-29T07:55:22.360Z,1015.58
2017-05-29T07:56:23.020Z,1015.52
2017-05-29T07:57:23.733Z,1015.57
2017-05-29T07:58:24.407Z,1015.59
2017-05-29T07:59:25.086Z,1015.58
2017-05-29T08:00:25.779Z,1015.59
2017-05-29T08:01:26.485Z,1015.57
2017-05-29T08:02:27.165Z,1015.57
2017-05-29T08:03:27.831Z,1015.61
2017-05-29T08:04:28.520Z,1015.62
2017-05-29T08:05:29.192Z,1015.62
2017-05-29T08:06:29.893Z,1015.7
2017-05-29T08:07:30.616Z,1015.66
2017-05-29T08:08:31.314Z,1015.63
2017-05-29T08:09:31.997Z,1015.69
2017-05-29T08:10:32.682Z,1015.67
2017-05-29T08:11:33.352Z,1015.71
2017-05-29T08:12:34.029Z,1015.68
2017-05-29T08:13:34.710Z,1015.75
2017-05-29T08:14:35.407Z,1015.72
2017-05-29T08:15:36.081Z,1015.66
2017-05-29T08:16:36.748Z,1015.71
2017-05-29T08:17:37.423Z,1015.67
2017-05-29T08:18:38.110Z,1015.69
2017-05-29T08:19:38.803Z,1015.63
2017-05-29T08:20:39.492Z,1015.61
2017-05-29T08:21:40.162Z,1015.63
2017-05-29T08:22:40.861Z,1015.65
2017-05-29T08:23:41.542Z,1015.6
2017-05-29T08:24:42.234Z,1015.68
2017-05-29T08:25:42.911Z,1015.61
2017-05-29T08:26:43.578Z,1015.74
2017-05-29T08:27:44.265Z,1015.68
2017-05-29T08:28:44.937Z,1015.6
2017-05-29T08:29:45.639Z,1015.62
2017-05-29T08:30:46.317Z,1015.65
2017-05-29T08:31:46.993Z,1015.75
2017-05-29T08:32:47.690Z,1015.7
2017-05-29T08:33:48.365Z,1015.72
2017-05-29T08:34:49.054Z,1015.76
2017-05-29T08:35:49.767Z,1015.71
2017-05-29T08:36:50.449Z,1015.77
2017-05-29T08:37:51.130Z,1015.62
2017-05-29T08:38:51.825Z,1015.63
2017-05-29T08:39:52.510Z,1015.77
2017-05-29T08:40:53.441Z,1015.76
2017-05-29T08:41:54.154Z,1015.76
2017-05-29T08:42:54.842Z,1015.79
2017-05-29T08:43:55.629Z,1015.81
2017-05-29T08:44:56.390Z,1015.83
2017-05-29T08:45:57.055Z,1015.83
2017-05-29T08:46:57.751Z,1015.77
2017-05-29T08:47:58.431Z,1015.9
2017-05-29T08:48:59.099Z,1015.94
2017-05-29T08:49:59.798Z,1015.81
2017-05-29T08:51:00.472Z,1015.9
2017-05-29T08:52:01.237Z,1015.88
2017-05-29T08:53:01.931Z,1015.85
2017-05-29T08:54:02.603Z,1015.82
2017-05-29T08:55:03.310Z,1015.83
2017-05-29T08:56:03.992Z,1015.77
2017-05-29T08:57:04.669Z,1015.75
2017-05-29T08:58:05.375Z,1015.68
2017-05-29T08:59:06.067Z,1015.69
2017-05-29T09:00:06.833Z,1015.68
2017-05-29T09:01:07.559Z,1015.64
2017-05-29T09:02:08.312Z,1015.61
2017-05-29T09:03:08.996Z,1015.55
2017-05-29T09:04:09.669Z,1015.47
2017-05-29T09:05:10.357Z,1015.53
2017-05-29T09:06:11.031Z,1015.57
2017-05-29T09:07:11.703Z,1015.59
2017-05-29T09:08:12.480Z,1015.55
2017-05-29T09:09:13.157Z,1015.51
2017-05-29T09:10:13.821Z,1015.55
2017-05-29T09:11:14.516Z,1015.53
2017-05-29T09:12:15.210Z,1015.52
2017-05-29T09:15:51.378Z,1015.31
2017-05-29T09:16:52.149Z,1015.22
2017-05-29T09:17:52.939Z,1015.19
2017-05-29T09:18:53.622Z,1015.15
2017-05-29T09:19:54.447Z,1015.21
2017-05-29T09:20:55.166Z,1015.22
2017-05-29T09:21:55.841Z,1015.21
2017-05-29T09:22:56.528Z,1015.14
2017-05-29T09:23:57.219Z,1015.2
2017-05-29T09:24:57.905Z,1015.19
2017-05-29T09:25:58.611Z,1015.25
2017-05-29T09:26:59.307Z,1015.17
2017-05-29T09:28:00.024Z,1015.15
2017-05-29T09:29:00.843Z,1015.07
2017-05-29T09:30:01.904Z,1015.02
2017-05-29T09:31:02.662Z,1015.06
2017-05-29T09:32:03.338Z,1015.01
2017-05-29T09:33:04.029Z,1014.95
2017-05-29T09:34:04.710Z,1014.91
2017-05-29T09:35:05.398Z,1014.84
2017-05-29T09:36:06.096Z,1014.8
2017-05-29T09:37:06.789Z,1014.84
2017-05-29T09:38:07.453Z,1014.93
2017-05-29T09:39:08.126Z,1014.93
2017-05-29T09:40:08.838Z,1014.86
2017-05-29T09:41:09.543Z,1014.87
2017-05-29T09:42:10.263Z,1014.84
2017-05-29T09:43:10.945Z,1014.87
2017-05-29T09:44:11.655Z,1014.83
2017-05-29T09:45:12.351Z,1014.75
2017-05-29T09:46:13.049Z,1014.66
2017-05-29T09:47:13.741Z,1014.59
2017-05-29T09:48:14.424Z,1014.6
2017-05-29T09:49:15.115Z,1014.6
2017-05-29T09:50:15.863Z,1014.58
2017-05-29T09:51:16.562Z,1014.52
2017-05-29T09:52:17.287Z,1014.61
2017-05-29T09:53:17.956Z,1014.66
2017-05-29T09:54:18.636Z,1014.64
2017-05-29T09:55:19.364Z,1014.58
2017-05-29T09:56:20.083Z,1014.56
2017-05-29T09:57:20.777Z,1014.49
2017-05-29T09:58:21.447Z,1014.48
2017-05-29T09:59:22.155Z,1014.43
2017-05-29T10:00:23.202Z,1014.36
2017-05-29T10:01:24.223Z,1014.31
2017-05-29T10:02:25.110Z,1014.34
2017-05-29T10:03:25.859Z,1014.17
2017-05-29T10:04:26.591Z,1014.05
2017-05-29T10:05:27.280Z,1013.98
2017-05-29T10:06:28.232Z,1013.91
2017-05-29T10:07:28.965Z,1013.85
2017-05-29T10:08:29.736Z,1013.77
2017-05-29T10:09:30.417Z,1013.67
2017-05-29T10:10:31.380Z,1013.64
2017-05-29T10:11:32.123Z,1013.65
2017-05-29T10:12:32.846Z,1013.63
2017-05-29T10:13:33.544Z,1013.57
2017-05-29T10:14:34.244Z,1013.54
2017-05-29T10:15:34.917Z,1013.58
2017-05-29T10:16:35.639Z,1013.63
2017-05-29T10:17:36.344Z,1013.63
2017-05-29T10:18:37.033Z,1013.65
2017-05-29T10:19:37.731Z,1013.64
2017-05-29T10:20:38.416Z,1013.68
2017-05-29T10:21:39.106Z,1013.68
2017-05-29T10:22:39.809Z,1013.65
2017-05-29T10:23:40.484Z,1013.74
2017-05-29T10:24:41.325Z,1013.74
2017-05-29T10:25:42.104Z,1013.74
2017-05-29T10:26:42.805Z,1013.74
2017-05-29T10:27:43.480Z,1013.72
2017-05-29T10:28:44.273Z,1013.7
2017-05-29T10:29:44.938Z,1013.74
2017-05-29T10:30:45.630Z,1013.78
2017-05-29T10:31:46.313Z,1013.82
2017-05-29T10:32:47.043Z,1013.84
2017-05-29T10:33:47.696Z,1013.85
2017-05-29T10:34:48.414Z,1013.81
2017-05-29T10:35:49.093Z,1013.73
2017-05-29T10:36:49.767Z,1013.66
2017-05-29T10:37:50.434Z,1013.62
2017-05-29T10:38:51.181Z,1013.61
2017-05-29T10:39:51.855Z,1013.58
2017-05-29T10:40:52.584Z,1013.61
2017-05-29T10:41:53.238Z,1013.64
2017-05-29T10:42:53.899Z,1013.6
2017-05-29T10:43:54.581Z,1013.58
2017-05-29T10:44:55.249Z,1013.51
2017-05-29T10:45:55.947Z,1013.51
2017-05-29T10:46:56.631Z,1013.54
2017-05-29T10:47:57.311Z,1013.6
2017-05-29T10:48:57.986Z,1013.58
2017-05-29T10:49:58.658Z,1013.6
2017-05-29T10:50:59.337Z,1013.53
2017-05-29T10:52:00.049Z,1013.41
2017-05-29T10:53:00.720Z,1013.48
2017-05-29T10:54:01.396Z,1013.5
2017-05-29T10:55:02.063Z,1013.58
2017-05-29T10:56:02.738Z,1013.66
2017-05-29T10:57:03.414Z,1013.77
2017-05-29T10:58:04.088Z,1013.91
2017-05-29T10:59:04.759Z,1014.02
2017-05-29T11:00:05.450Z,1014.16
2017-05-29T11:01:06.125Z,1014.14
2017-05-29T11:02:06.786Z,1014.18
2017-05-29T11:03:07.448Z,1014.18
2017-05-29T11:04:08.128Z,1014.22
2017-05-29T11:05:08.807Z,1014.25
2017-05-29T11:06:09.498Z,1014.27
2017-05-29T11:07:10.184Z,1014.3
2017-05-29T11:08:10.873Z,1014.32
2017-05-29T11:09:11.541Z,1014.27
2017-05-29T11:10:12.251Z,1014.31
2017-05-29T11:11:12.935Z,1014.29
2017-05-29T11:12:13.606Z,1014.26
2017-05-29T11:13:14.279Z,1014.27
2017-05-29T11:14:14.948Z,1014.32
2017-05-29T11:15:15.642Z,1014.3
2017-05-29T11:16:16.304Z,1014.22
2017-05-29T11:17:16.999Z,1014.15
2017-05-29T11:18:17.682Z,1014.09
2017-05-29T11:19:18.385Z,1014.03
2017-05-29T11:20:19.073Z,1014.05
2017-05-29T11:21:19.758Z,1014.03
2017-05-29T11:22:20.451Z,1013.97
2017-05-29T11:23:21.110Z,1013.89
2017-05-29T11:24:21.824Z,1013.88
2017-05-29T11:25:22.519Z,1013.85
2017-05-29T11:26:23.210Z,1013.89
2017-05-29T11:27:23.878Z,1013.92
2017-05-29T11:28:24.554Z,1013.93
2017-05-29T11:29:25.231Z,1013.91
2017-05-29T11:30:25.969Z,1013.89
2017-05-29T11:31:26.648Z,1013.82
2017-05-29T11:32:27.321Z,1013.83
2017-05-29T11:33:28.019Z,1013.88
2017-05-29T11:34:28.699Z,1013.96
2017-05-29T11:35:29.397Z,1013.95
2017-05-29T11:36:30.089Z,1013.92
2017-05-29T11:37:30.767Z,1013.93
2017-05-29T11:38:31.439Z,1013.94
2017-05-29T11:39:32.104Z,1013.96
2017-05-29T11:40:32.785Z,1013.96
2017-05-29T11:41:33.484Z,1013.95
2017-05-29T11:42:34.156Z,1013.95
2017-05-29T11:43:34.879Z,1013.95
2017-05-29T11:44:35.553Z,1013.93
2017-05-29T11:45:36.227Z,1013.92
2017-05-29T11:46:36.888Z,1013.92
2017-05-29T11:47:37.567Z,1013.89
2017-05-29T11:48:38.247Z,1013.9
2017-05-29T11:49:38.955Z,1013.88
2017-05-29T11:50:39.625Z,1013.85
2017-05-29T11:51:40.290Z,1013.86
2017-05-29T11:52:40.984Z,1013.85
2017-05-29T11:53:41.661Z,1013.82
2017-05-29T11:54:42.332Z,1013.86
2017-05-29T11:55:43.051Z,1013.8
2017-05-29T11:56:43.715Z,1013.82
2017-05-29T11:57:44.388Z,1013.79
2017-05-29T11:58:45.076Z,1013.75
2017-05-29T11:59:45.743Z,1013.74
2017-05-29T12:00:46.433Z,1013.72
2017-05-29T12:01:47.130Z,1013.74
2017-05-29T12:02:47.801Z,1013.73
2017-05-29T12:03:48.479Z,1013.72
2017-05-29T12:04:49.154Z,1013.7
2017-05-29T12:05:49.840Z,1013.67
2017-05-29T12:06:50.524Z,1013.68
2017-05-29T12:07:51.223Z,1013.68
2017-05-29T12:08:51.908Z,1013.65
2017-05-29T12:09:52.612Z,1013.65
2017-05-29T12:10:53.323Z,1013.66
2017-05-29T12:11:53.990Z,1013.63
2017-05-29T12:12:54.655Z,1013.61
2017-05-29T12:13:55.321Z,1013.61
2017-05-29T12:14:55.996Z,1013.59
2017-05-29T12:15:56.707Z,1013.58
2017-05-29T12:16:57.444Z,1013.59
2017-05-29T12:17:58.112Z,1013.59
2017-05-29T12:18:58.858Z,1013.6
2017-05-29T12:19:59.530Z,1013.56
2017-05-29T12:21:00.203Z,1013.6
2017-05-29T12:22:00.892Z,1013.57
2017-05-29T12:23:01.596Z,1013.59
2017-05-29T12:24:02.276Z,1013.51
2017-05-29T12:25:02.945Z,1013.49
2017-05-29T12:26:03.613Z,1013.45
2017-05-29T12:27:04.287Z,1013.46
2017-05-29T12:28:04.961Z,1013.45
2017-05-29T12:29:05.632Z,1013.45
2017-05-29T12:30:06.311Z,1013.43
2017-05-29T12:31:06.982Z,1013.38
2017-05-29T12:32:07.651Z,1013.4
2017-05-29T12:33:08.337Z,1013.42
2017-05-29T12:34:09.014Z,1013.42
2017-05-29T12:35:09.690Z,1013.42
2017-05-29T12:36:10.365Z,1013.41
2017-05-29T12:37:11.078Z,1013.37
2017-05-29T12:38:11.756Z,1013.38
2017-05-29T12:39:12.421Z,1013.35
2017-05-29T12:40:13.102Z,1013.33
2017-05-29T12:41:13.780Z,1013.36
2017-05-29T12:42:14.447Z,1013.35
2017-05-29T12:43:15.118Z,1013.32
2017-05-29T12:44:15.826Z,1013.31
2017-05-29T12:45:16.503Z,1013.27
2017-05-29T12:46:17.172Z,1013.34
2017-05-29T12:47:17.846Z,1013.3
2017-05-29T12:48:18.509Z,1013.24
2017-05-29T12:49:19.211Z,1013.23
2017-05-29T12:50:19.871Z,1013.21
2017-05-29T12:51:20.552Z,1013.23
2017-05-29T12:52:21.227Z,1013.23
2017-05-29T12:53:21.918Z,1013.22
2017-05-29T12:54:22.602Z,1013.21
2017-05-29T12:55:23.454Z,1013.19
2017-05-29T12:56:24.123Z,1013.16
2017-05-29T12:57:24.796Z,1013.14
2017-05-29T12:58:25.470Z,1013.22
2017-05-29T12:59:26.149Z,1013.16
2017-05-29T13:00:26.814Z,1013.16
2017-05-29T13:01:27.498Z,1013.16
2017-05-29T13:02:28.168Z,1013.13
2017-05-29T13:03:28.835Z,1013.12
2017-05-29T13:04:29.517Z,1013.12
2017-05-29T13:05:30.338Z,1013.15
2017-05-29T13:06:31.010Z,1013.17
2017-05-29T13:07:31.677Z,1013.14
2017-05-29T13:08:32.361Z,1013.13
2017-05-29T13:09:33.035Z,1013.14
2017-05-29T13:10:33.708Z,1013.13
2017-05-29T13:11:34.374Z,1013.15
2017-05-29T13:12:35.044Z,1013.12
2017-05-29T13:13:35.709Z,1013.17
2017-05-29T13:14:36.408Z,1013.18
2017-05-29T13:15:37.143Z,1013.19
2017-05-29T13:16:37.796Z,1013.17
2017-05-29T13:17:38.538Z,1013.18
2017-05-29T13:18:39.251Z,1013.15
2017-05-29T13:19:39.951Z,1013.11
2017-05-29T13:20:40.683Z,1013.14
2017-05-29T13:21:41.350Z,1013.13
2017-05-29T13:22:42.030Z,1013.1
2017-05-29T13:23:42.729Z,1013.14
2017-05-29T13:24:43.397Z,1013.1
2017-05-29T13:25:44.070Z,1013.06
2017-05-29T13:26:44.774Z,1013.08
2017-05-29T13:27:45.454Z,1013.07
2017-05-29T13:28:46.139Z,1013.07
2017-05-29T13:29:46.828Z,1013.04
2017-05-29T13:30:47.550Z,1013.07
2017-05-29T13:31:48.228Z,1013.11
2017-05-29T13:32:48.910Z,1013.09
2017-05-29T13:33:49.577Z,1013.11
2017-05-29T13:34:50.247Z,1013.08
2017-05-29T13:35:50.932Z,1013.05
2017-05-29T13:36:51.612Z,1013.05
2017-05-29T13:37:52.297Z,1013.04
2017-05-29T13:38:52.987Z,1013.02
2017-05-29T13:39:53.687Z,1013.03
2017-05-29T13:40:54.367Z,1013.02
2017-05-29T13:41:55.060Z,1012.99
2017-05-29T13:42:55.737Z,1013
2017-05-29T13:43:56.425Z,1013
2017-05-29T13:44:57.122Z,1012.96
2017-05-29T13:45:57.880Z,1012.94
2017-05-29T13:46:58.585Z,1012.97
2017-05-29T13:47:59.253Z,1012.93
2017-05-29T13:48:59.922Z,1012.95
2017-05-29T13:50:00.589Z,1012.95
2017-05-29T13:51:01.275Z,1012.97
2017-05-29T13:52:01.961Z,1012.96
2017-05-29T13:53:02.620Z,1012.95
2017-05-29T13:54:03.295Z,1012.91
2017-05-29T13:55:03.979Z,1012.92
2017-05-29T13:56:04.653Z,1012.92
2017-05-29T13:57:05.320Z,1012.88
2017-05-29T13:58:05.977Z,1012.88
2017-05-29T13:59:06.660Z,1012.87
2017-05-29T14:00:07.488Z,1012.84
2017-05-29T14:01:08.156Z,1012.81
2017-05-29T14:02:08.832Z,1012.83
2017-05-29T14:03:09.497Z,1012.83
2017-05-29T14:04:10.176Z,1012.76
2017-05-29T14:05:10.855Z,1012.77
2017-05-29T14:06:11.565Z,1012.75
2017-05-29T14:07:12.231Z,1012.75
2017-05-29T14:08:12.915Z,1012.71
2017-05-29T14:09:13.591Z,1012.71
2017-05-29T14:10:14.256Z,1012.72
2017-05-29T14:11:14.934Z,1012.7
2017-05-29T14:12:15.627Z,1012.72
2017-05-29T14:13:16.357Z,1012.7
2017-05-29T14:14:17.032Z,1012.68
2017-05-29T14:15:17.725Z,1012.68
2017-05-29T14:16:18.385Z,1012.68
2017-05-29T14:17:19.068Z,1012.68
2017-05-29T14:18:19.751Z,1012.66
2017-05-29T14:19:20.422Z,1012.68
2017-05-29T14:20:21.093Z,1012.6
2017-05-29T14:21:21.777Z,1012.56
2017-05-29T14:22:22.453Z,1012.56
2017-05-29T14:23:23.142Z,1012.55
2017-05-29T14:24:23.859Z,1012.53
2017-05-29T14:25:24.554Z,1012.52
2017-05-29T14:26:25.244Z,1012.5
2017-05-29T14:27:25.916Z,1012.54
2017-05-29T14:28:26.578Z,1012.51
2017-05-29T14:29:27.266Z,1012.47
2017-05-29T14:30:27.946Z,1012.46
2017-05-29T14:31:28.639Z,1012.48
2017-05-29T14:32:29.317Z,1012.45
2017-05-29T14:33:29.981Z,1012.44
2017-05-29T14:34:30.698Z,1012.41
2017-05-29T14:35:31.377Z,1012.4
2017-05-29T14:36:32.084Z,1012.4
2017-05-29T14:37:32.756Z,1012.33
2017-05-29T14:38:33.470Z,1012.37
2017-05-29T14:39:34.140Z,1012.35
2017-05-29T14:40:34.816Z,1012.37
2017-05-29T14:41:35.520Z,1012.34
2017-05-29T14:42:36.193Z,1012.34
2017-05-29T14:43:36.866Z,1012.35
2017-05-29T14:44:37.549Z,1012.33
2017-05-29T14:45:38.236Z,1012.31
2017-05-29T14:46:38.899Z,1012.3
2017-05-29T14:47:39.609Z,1012.3
2017-05-29T14:48:40.295Z,1012.31
2017-05-29T14:49:41.032Z,1012.31
2017-05-29T14:50:41.769Z,1012.29
2017-05-29T14:51:42.519Z,1012.32
2017-05-29T14:52:43.201Z,1012.37
2017-05-29T14:53:43.920Z,1012.34
2017-05-29T14:54:44.548Z,1012.32
2017-05-29T14:55:45.224Z,1012.3
2017-05-29T14:56:45.908Z,1012.3
2017-05-29T14:57:46.590Z,1012.33
2017-05-29T14:58:47.255Z,1012.31
2017-05-29T14:59:47.935Z,1012.29
2017-05-29T15:00:48.615Z,1012.28
2017-05-29T15:01:49.321Z,1012.27
2017-05-29T15:02:49.958Z,1012.25
2017-05-29T15:03:50.669Z,1012.29
2017-05-29T15:04:51.357Z,1012.22
2017-05-29T15:05:52.028Z,1012.24
2017-05-29T15:06:52.724Z,1012.22
2017-05-29T15:07:53.393Z,1012.22
2017-05-29T15:08:54.086Z,1012.23
2017-05-29T15:09:54.765Z,1012.2
2017-05-29T15:10:55.435Z,1012.19
2017-05-29T15:11:56.113Z,1012.16
2017-05-29T15:12:56.775Z,1012.15
2017-05-29T15:13:57.507Z,1012.16
2017-05-29T15:14:58.180Z,1012.15
2017-05-29T15:15:58.893Z,1012.13
2017-05-29T15:16:59.586Z,1012.12
2017-05-29T15:18:00.260Z,1012.13
2017-05-29T15:19:00.953Z,1012.1
2017-05-29T15:20:01.632Z,1012.1
2017-05-29T15:21:02.367Z,1012.1
2017-05-29T15:22:03.077Z,1012.07
2017-05-29T15:23:03.747Z,1012.14
2017-05-29T15:24:04.501Z,1012.13
2017-05-29T15:25:05.213Z,1012.15
2017-05-29T15:26:05.885Z,1012.12
2017-05-29T15:27:06.741Z,1012.16
2017-05-29T15:28:07.413Z,1012.15
2017-05-29T15:29:08.105Z,1012.13
2017-05-29T15:30:08.780Z,1012.14
2017-05-29T15:31:09.559Z,1012.14
2017-05-29T15:32:10.535Z,1012.17
2017-05-29T15:33:11.216Z,1012.17
2017-05-29T15:34:11.882Z,1012.17
2017-05-29T15:35:12.629Z,1012.18
2017-05-29T15:36:13.313Z,1012.15
2017-05-29T15:37:13.979Z,1012.09
2017-05-29T15:38:14.677Z,1012.09
2017-05-29T15:39:15.392Z,1012.11
2017-05-29T15:40:16.070Z,1012.09
2017-05-29T15:41:16.805Z,1012.1
2017-05-29T15:42:17.524Z,1012.04
2017-05-29T15:43:18.868Z,1012.05
2017-05-29T15:44:19.559Z,1012.05
2017-05-29T15:45:20.236Z,1012.01
2017-05-29T15:46:20.910Z,1012.01
2017-05-29T15:47:21.617Z,1011.98
2017-05-29T15:48:22.288Z,1011.97
2017-05-29T15:49:23.338Z,1011.94
2017-05-29T15:50:24.090Z,1011.94
2017-05-29T15:51:24.752Z,1011.91
2017-05-29T15:52:25.425Z,1011.91
2017-05-29T15:53:26.124Z,1011.9
2017-05-29T15:54:26.787Z,1011.9
2017-05-29T15:55:27.448Z,1011.86
2017-05-29T15:56:28.122Z,1011.86
2017-05-29T15:57:28.793Z,1011.79
2017-05-29T15:58:29.475Z,1011.82
2017-05-29T15:59:30.141Z,1011.79
2017-05-29T16:00:30.824Z,1011.79
2017-05-29T16:01:31.510Z,1011.8
2017-05-29T16:02:32.179Z,1011.8
2017-05-29T16:03:32.879Z,1011.8
2017-05-29T16:04:33.566Z,1011.8
2017-05-29T16:05:34.241Z,1011.78
2017-05-29T16:06:34.952Z,1011.8
2017-05-29T16:07:35.621Z,1011.81
2017-05-29T16:08:36.297Z,1011.81
2017-05-29T16:09:37.017Z,1011.82
2017-05-29T16:10:37.684Z,1011.87
2017-05-29T16:11:38.374Z,1011.85
2017-05-29T16:12:39.037Z,1011.89
2017-05-29T16:13:41.049Z,1011.86
2017-05-29T16:14:41.721Z,1011.87
2017-05-29T16:15:42.431Z,1011.86
2017-05-29T16:16:43.106Z,1011.84
2017-05-29T16:17:43.784Z,1011.84
2017-05-29T16:18:44.471Z,1011.86
2017-05-29T16:19:45.140Z,1011.86
2017-05-29T16:20:45.858Z,1011.88
2017-05-29T16:21:46.543Z,1011.86
2017-05-29T16:22:47.207Z,1011.88
2017-05-29T16:23:47.876Z,1011.84
2017-05-29T16:24:48.567Z,1011.84
2017-05-29T16:25:49.233Z,1011.85
2017-05-29T16:26:49.941Z,1011.86
2017-05-29T16:27:50.607Z,1011.83
2017-05-29T16:28:51.299Z,1011.78
2017-05-29T16:29:51.986Z,1011.82
2017-05-29T16:30:52.676Z,1011.81
2017-05-29T16:31:53.382Z,1011.76
2017-05-29T16:32:54.089Z,1011.81
2017-05-29T16:33:54.754Z,1011.8
2017-05-29T16:34:55.499Z,1011.74
2017-05-29T16:35:56.191Z,1011.77
2017-05-29T16:36:56.953Z,1011.76
2017-05-29T16:37:57.631Z,1011.8
2017-05-29T16:38:58.322Z,1011.77
2017-05-29T16:39:59.001Z,1011.73
2017-05-29T16:40:59.697Z,1011.77
2017-05-29T16:42:00.612Z,1011.74
2017-05-29T16:43:01.293Z,1011.74
2017-05-29T16:44:01.970Z,1011.77
2017-05-29T16:45:02.649Z,1011.73
2017-05-29T16:46:03.316Z,1011.74
2017-05-29T16:47:04.020Z,1011.68
2017-05-29T16:48:04.730Z,1011.72
2017-05-29T16:49:05.415Z,1011.68
2017-05-29T16:50:06.088Z,1011.64
2017-05-29T16:51:06.886Z,1011.62
2017-05-29T16:52:07.524Z,1011.64
2017-05-29T16:53:08.273Z,1011.62
2017-05-29T16:54:08.965Z,1011.63
2017-05-29T16:55:09.644Z,1011.67
2017-05-29T16:56:10.315Z,1011.64
2017-05-29T16:57:10.980Z,1011.68
2017-05-29T16:58:11.670Z,1011.65
2017-05-29T16:59:12.344Z,1011.69
2017-05-29T17:00:13.014Z,1011.7
2017-05-29T17:01:13.688Z,1011.65
2017-05-29T17:02:14.411Z,1011.69
2017-05-29T17:03:15.102Z,1011.67
2017-05-29T17:04:15.774Z,1011.68
2017-05-29T17:05:16.456Z,1011.65
2017-05-29T17:06:17.134Z,1011.67
2017-05-29T17:07:17.815Z,1011.65
2017-05-29T17:08:18.497Z,1011.67
2017-05-29T17:09:19.175Z,1011.7
2017-05-29T17:10:19.847Z,1011.7
2017-05-29T17:11:20.526Z,1011.68
2017-05-29T17:12:21.205Z,1011.65
2017-05-29T17:13:21.873Z,1011.66
2017-05-29T17:14:22.547Z,1011.7
2017-05-29T17:15:23.219Z,1011.67
2017-05-29T17:16:23.894Z,1011.64
2017-05-29T17:17:24.579Z,1011.66
2017-05-29T17:18:25.299Z,1011.66
2017-05-29T17:19:25.969Z,1011.64
2017-05-29T17:20:26.651Z,1011.7
2017-05-29T17:21:27.324Z,1011.67
2017-05-29T17:22:27.998Z,1011.73
2017-05-29T17:23:28.728Z,1011.72
2017-05-29T17:24:29.410Z,1011.71
2017-05-29T17:25:30.089Z,1011.7
2017-05-29T17:26:30.768Z,1011.7
2017-05-29T17:27:31.421Z,1011.69
2017-05-29T17:28:32.100Z,1011.68
2017-05-29T17:29:32.776Z,1011.66
2017-05-29T17:30:33.480Z,1011.64
2017-05-29T17:31:34.159Z,1011.62
2017-05-29T17:32:34.875Z,1011.62
2017-05-29T17:33:35.564Z,1011.57
2017-05-29T17:34:36.240Z,1011.58
2017-05-29T17:35:36.907Z,1011.62
2017-05-29T17:36:37.589Z,1011.63
2017-05-29T17:37:38.262Z,1011.64
2017-05-29T17:38:38.950Z,1011.64
2017-05-29T17:39:39.624Z,1011.62
2017-05-29T17:40:40.300Z,1011.61
2017-05-29T17:41:40.972Z,1011.6
2017-05-29T17:42:41.666Z,1011.62
2017-05-29T17:43:42.346Z,1011.55
2017-05-29T17:44:43.046Z,1011.58
2017-05-29T17:45:43.732Z,1011.6
2017-05-29T17:46:44.412Z,1011.58
2017-05-29T17:47:45.094Z,1011.56
2017-05-29T17:48:45.779Z,1011.57
2017-05-29T17:49:46.440Z,1011.52
2017-05-29T17:50:47.129Z,1011.54
2017-05-29T17:51:47.800Z,1011.57
2017-05-29T17:52:48.493Z,1011.6
2017-05-29T17:53:49.158Z,1011.57
2017-05-29T17:54:49.843Z,1011.6
2017-05-29T17:55:50.540Z,1011.58
2017-05-29T17:56:51.218Z,1011.6
2017-05-29T17:57:51.912Z,1011.62
2017-05-29T17:58:52.585Z,1011.63
2017-05-29T17:59:53.274Z,1011.63
2017-05-29T18:00:53.966Z,1011.69
2017-05-29T18:01:54.628Z,1011.64
2017-05-29T18:02:55.299Z,1011.68
2017-05-29T18:03:55.981Z,1011.67
2017-05-29T18:04:56.640Z,1011.67
2017-05-29T18:05:57.353Z,1011.68
2017-05-29T18:06:58.035Z,1011.71
2017-05-29T18:07:58.705Z,1011.7
2017-05-29T18:08:59.415Z,1011.62
2017-05-29T18:10:00.139Z,1011.61
2017-05-29T18:11:00.830Z,1011.64
2017-05-29T18:12:01.494Z,1011.61
2017-05-29T18:13:02.221Z,1011.62
2017-05-29T18:14:02.987Z,1011.62
2017-05-29T18:15:03.661Z,1011.62
2017-05-29T18:16:04.360Z,1011.66
2017-05-29T18:17:05.399Z,1011.66
2017-05-29T18:18:06.542Z,1011.61
2017-05-29T18:19:07.561Z,1011.69
2017-05-29T18:20:08.455Z,1011.66
2017-05-29T18:21:09.145Z,1011.63
2017-05-29T18:22:09.809Z,1011.61
2017-05-29T18:23:10.491Z,1011.64
2017-05-29T18:24:11.171Z,1011.59
2017-05-29T18:25:11.853Z,1011.62
2017-05-29T18:26:12.534Z,1011.62
2017-05-29T18:27:13.235Z,1011.64
2017-05-29T18:28:13.910Z,1011.63
2017-05-29T18:29:14.591Z,1011.63
2017-05-29T18:30:15.245Z,1011.61
2017-05-29T18:31:15.970Z,1011.62
2017-05-29T18:32:16.641Z,1011.64
2017-05-29T18:33:17.335Z,1011.63
2017-05-29T18:34:18.038Z,1011.65
2017-05-29T18:35:18.708Z,1011.66
2017-05-29T18:36:19.412Z,1011.69
2017-05-29T18:37:20.106Z,1011.66
2017-05-29T18:38:20.774Z,1011.68
2017-05-29T18:39:21.446Z,1011.66
2017-05-29T18:40:22.143Z,1011.64
2017-05-29T18:41:22.807Z,1011.69
2017-05-29T18:42:23.492Z,1011.67
2017-05-29T18:43:24.266Z,1011.67
2017-05-29T18:44:25.101Z,1011.7
2017-05-29T18:45:25.874Z,1011.67
2017-05-29T18:46:26.592Z,1011.65
2017-05-29T18:47:27.410Z,1011.69
2017-05-29T18:48:28.178Z,1011.67
2017-05-29T18:49:28.909Z,1011.64
2017-05-29T18:50:29.590Z,1011.7
2017-05-29T18:51:30.292Z,1011.7
2017-05-29T18:52:30.986Z,1011.69
2017-05-29T18:53:31.671Z,1011.69
2017-05-29T18:54:32.359Z,1011.66
2017-05-29T18:55:33.124Z,1011.68
2017-05-29T18:56:33.856Z,1011.72
2017-05-29T18:57:34.532Z,1011.72
2017-05-29T18:58:35.225Z,1011.75
2017-05-29T18:59:36.162Z,1011.75
2017-05-29T19:00:36.938Z,1011.74
2017-05-29T19:01:37.647Z,1011.73
2017-05-29T19:02:38.403Z,1011.73
2017-05-29T19:03:39.167Z,1011.76
2017-05-29T19:04:39.986Z,1011.7
2017-05-29T19:05:40.668Z,1011.73
2017-05-29T19:06:41.359Z,1011.77
2017-05-29T19:07:42.047Z,1011.78
2017-05-29T19:08:42.717Z,1011.79
2017-05-29T19:09:43.386Z,1011.79
2017-05-29T19:10:44.062Z,1011.75
2017-05-29T19:11:45.019Z,1011.8
2017-05-29T19:12:45.864Z,1011.79